Time;durP1;ratioP1;P1;durP2;ratioP2;P2;SDS_P1;SDS_P2;PMS_P1;PMS_P2;Temp;Humidity;BMP_temperature;BMP_pressure;BME280_temperature;BME280_humidity;BME280_pressure;Samples;Min_cycle;Max_cycle;Signal;HPM_P1;HPM_P2
2021/12/14 00:00:24;;;;;;;0.50;0.50;;;;;;;-143.85;100.00;70650.75;5112760;28;20049;-75
2021/12/14 00:02:52;;;;;;;0.82;0.82;;;;;;;-143.85;100.00;70650.75;5095115;28;20054;-76
2021/12/14 00:05:24;;;;;;;0.43;0.43;;;;;;;-143.85;100.00;70650.75;5094284;28;20023;-76
2021/12/14 00:07:50;;;;;;;0.30;0.30;;;;;;;-143.85;100.00;70650.75;5094584;28;20035;-76
2021/12/14 00:13:46;;;;;;;0.38;0.38;;;;;;;-143.85;100.00;70650.75;5074686;28;20599;-75
2021/12/14 00:16:12;;;;;;;1.40;1.40;;;;;;;-143.85;100.00;70650.75;5112157;28;20088;-75
2021/12/14 00:18:40;;;;;;;0.35;0.35;;;;;;;-143.85;100.00;70650.75;5094675;28;20084;-75
2021/12/14 00:21:28;;;;;;;0.77;0.77;;;;;;;-143.85;100.00;70650.75;5094540;28;20032;-75
2021/12/14 00:24:06;;;;;;;0.50;0.50;;;;;;;-143.85;100.00;70650.75;5099055;28;20653;-78
2021/12/14 00:27:00;;;;;;;1.63;1.02;;;;;;;-143.85;100.00;70650.75;5098303;28;20042;-77
2021/12/14 00:29:34;;;;;;;0.20;0.20;;;;;;;-143.85;100.00;70650.75;5088444;28;20036;-75
2021/12/14 00:32:03;;;;;;;0.20;0.20;;;;;;;-143.85;100.00;70650.75;5098302;28;20039;-74
2021/12/14 00:34:38;;;;;;;1.75;1.38;;;;;;;-143.85;100.00;70650.75;5098011;28;20053;-74
2021/12/14 00:37:06;;;;;;;0.10;0.10;;;;;;;-143.85;100.00;70650.75;5116582;28;20020;-75
2021/12/14 00:39:31;;;;;;;0.20;0.20;;;;;;;-143.85;100.00;70650.75;5098067;28;20118;-75
2021/12/14 00:41:57;;;;;;;0.22;0.22;;;;;;;-143.85;100.00;70650.75;5116126;28;20169;-75
2021/12/14 00:44:22;;;;;;;0.22;0.22;;;;;;;-143.85;100.00;70650.75;5098059;28;20055;-75
2021/12/14 00:46:48;;;;;;;0.93;0.93;;;;;;;-143.85;100.00;70650.75;5098460;28;20262;-75
2021/12/14 00:49:15;;;;;;;0.65;0.65;;;;;;;-143.85;100.00;70650.75;5097936;28;20031;-75
2021/12/14 00:51:41;;;;;;;0.60;0.60;;;;;;;-143.85;100.00;70650.75;5097841;28;20380;-74
2021/12/14 00:54:12;;;;;;;0.30;0.30;;;;;;;-143.85;100.00;70650.75;5097564;28;20034;-75
2021/12/14 00:56:39;;;;;;;0.65;0.65;;;;;;;-143.85;100.00;70650.75;5097702;28;20053;-75
2021/12/14 00:59:08;;;;;;;0.20;0.20;;;;;;;-143.85;100.00;70650.75;5097515;28;20471;-75
2021/12/14 01:01:39;;;;;;;0.20;0.20;;;;;;;-143.85;100.00;70650.75;5097655;28;20046;-74
2021/12/14 01:04:10;;;;;;;0.20;0.20;;;;;;;-143.85;100.00;70650.75;5097695;28;20027;-74
2021/12/14 01:06:44;;;;;;;0.65;0.65;;;;;;;-143.85;100.00;70650.75;5097592;28;20076;-74
2021/12/14 01:09:10;;;;;;;0.20;0.20;;;;;;;-143.85;100.00;70650.75;5116075;28;20055;-74
2021/12/14 01:11:42;;;;;;;0.20;0.20;;;;;;;-143.85;100.00;70650.75;5097432;28;20028;-74
2021/12/14 01:14:26;;;;;;;0.30;0.30;;;;;;;-143.85;100.00;70650.75;5097985;28;20417;-74
2021/12/14 01:17:09;;;;;;;0.28;0.28;;;;;;;-143.85;100.00;70650.75;5115704;28;20020;-73
2021/12/14 01:19:37;;;;;;;1.05;1.02;;;;;;;-143.85;100.00;70650.75;5097212;28;20047;-75
2021/12/14 01:22:17;;;;;;;0.15;0.15;;;;;;;-143.85;100.00;70650.75;5115609;28;20024;-74
2021/12/14 01:27:18;;;;;;;0.17;0.17;;;;;;;-143.85;100.00;70650.75;5115527;28;20091;-76
2021/12/14 01:29:47;;;;;;;0.30;0.30;;;;;;;-143.85;100.00;70650.75;5097188;28;20019;-76
2021/12/14 01:32:14;;;;;;;0.20;0.20;;;;;;;-143.85;100.00;70650.75;5097018;28;20403;-76
2021/12/14 01:34:39;;;;;;;0.20;0.20;;;;;;;-143.85;100.00;70650.75;5095574;28;20038;-74
2021/12/14 01:37:13;;;;;;;0.20;0.20;;;;;;;-143.85;100.00;70650.75;5096861;28;20023;-75
2021/12/14 01:42:19;;;;;;;0.38;0.35;;;;;;;-143.85;100.00;70650.75;5114855;28;20052;-75
2021/12/14 01:44:50;;;;;;;0.20;0.20;;;;;;;-143.85;100.00;70650.75;5096925;28;20084;-76
2021/12/14 01:47:27;;;;;;;0.30;0.30;;;;;;;-143.85;100.00;70650.75;5115204;28;20475;-75
2021/12/14 01:49:53;;;;;;;0.38;0.38;;;;;;;-143.85;100.00;70650.75;5096757;28;20587;-76
2021/12/14 01:52:25;;;;;;;0.20;0.20;;;;;;;-143.85;100.00;70650.75;5096672;28;20161;-75
2021/12/14 01:54:56;;;;;;;0.60;0.60;;;;;;;-143.85;100.00;70650.75;5096657;28;20020;-76
2021/12/14 01:57:25;;;;;;;0.60;0.60;;;;;;;-143.85;100.00;70650.75;5096940;28;20030;-74
2021/12/14 01:59:55;;;;;;;;;;;;;;;-143.85;100.00;70650.75;5096904;28;20115;-76
2021/12/14 02:02:32;;;;;;;0.93;0.60;;;;;;;-143.85;100.00;70650.75;5096571;28;19911;-77
2021/12/14 02:05:03;;;;;;;0.20;0.20;;;;;;;-143.85;100.00;70650.75;5097131;28;20548;-76
2021/12/14 02:07:29;;;;;;;2.90;1.02;;;;;;;-143.85;100.00;70650.75;5096048;28;20028;-75
2021/12/14 02:10:08;;;;;;;0.35;0.35;;;;;;;-143.85;100.00;70650.75;5096826;28;20027;-75
2021/12/14 02:12:33;;;;;;;0.77;0.77;;;;;;;-143.85;100.00;70650.75;5096807;28;20019;-77
2021/12/14 02:15:15;;;;;;;1.13;1.13;;;;;;;-143.85;100.00;70650.75;5096252;28;20532;-74
2021/12/14 02:17:41;;;;;;;0.35;0.35;;;;;;;-143.85;100.00;70650.75;5096017;28;20568;-75
2021/12/14 02:20:10;;;;;;;0.43;0.43;;;;;;;-143.85;100.00;70650.75;5096117;28;20027;-75
2021/12/14 02:22:36;;;;;;;0.30;0.30;;;;;;;-143.85;100.00;70650.75;5096051;28;20027;-74
2021/12/14 02:25:04;;;;;;;0.65;0.65;;;;;;;-143.85;100.00;70650.75;5096102;28;20458;-75
2021/12/14 02:27:35;;;;;;;0.40;0.40;;;;;;;-143.85;100.00;70650.75;5096061;28;20035;-75
2021/12/14 02:30:07;;;;;;;0.20;0.20;;;;;;;-143.85;100.00;70650.75;5095962;28;20069;-75
2021/12/14 02:32:32;;;;;;;0.25;0.25;;;;;;;-143.85;100.00;70650.75;5096433;28;20084;-75
2021/12/14 02:35:03;;;;;;;0.40;0.40;;;;;;;-143.85;100.00;70650.75;5095803;28;20476;-75
2021/12/14 02:37:34;;;;;;;0.20;0.20;;;;;;;-143.85;100.00;70650.75;5095753;28;20023;-75
2021/12/14 02:40:13;;;;;;;0.30;0.30;;;;;;;-143.85;100.00;70650.75;5095760;28;20063;-74
2021/12/14 02:42:39;;;;;;;0.30;0.30;;;;;;;-143.85;100.00;70650.75;5095857;28;20176;-74
2021/12/14 02:45:05;;;;;;;0.10;0.10;;;;;;;-143.85;100.00;70650.75;5096095;28;20028;-74
2021/12/14 02:47:30;;;;;;;0.28;0.28;;;;;;;-143.85;100.00;70650.75;5096298;28;20023;-74
2021/12/14 02:49:56;;;;;;;0.20;0.20;;;;;;;-143.85;100.00;70650.75;5096131;28;20104;-75
2021/12/14 02:52:34;;;;;;;0.20;0.20;;;;;;;-143.85;100.00;70650.75;5095582;28;20467;-75
2021/12/14 02:55:13;;;;;;;0.20;0.20;;;;;;;-143.85;100.00;70650.75;5095581;28;20040;-75
2021/12/14 02:57:43;;;;;;;0.20;0.20;;;;;;;-143.85;100.00;70650.75;5095451;28;20039;-75
2021/12/14 03:00:31;;;;;;;0.68;0.68;;;;;;;-143.85;100.00;70650.75;5095421;28;20028;-74
2021/12/14 03:02:59;;;;;;;0.30;0.30;;;;;;;-143.85;100.00;70650.75;5095599;28;20507;-74
2021/12/14 03:05:30;;;;;;;0.30;0.30;;;;;;;-143.85;100.00;70650.75;5095048;28;20126;-75
2021/12/14 03:08:02;;;;;;;0.82;0.82;;;;;;;-143.85;100.00;70650.75;5113524;28;20028;-74
2021/12/14 03:12:57;;;;;;;0.20;0.20;;;;;;;-143.85;100.00;70650.75;5113323;28;20019;-74
2021/12/14 03:15:22;;;;;;;0.20;0.20;;;;;;;-143.85;100.00;70650.75;5095451;28;20020;-75
2021/12/14 03:17:51;;;;;;;0.20;0.20;;;;;;;-143.85;100.00;70650.75;5095299;28;20038;-75
2021/12/14 03:20:19;;;;;;;0.17;0.17;;;;;;;-143.85;100.00;70650.75;5095116;28;20034;-74
2021/12/14 03:22:57;;;;;;;0.35;0.35;;;;;;;-143.85;100.00;70650.75;5095032;28;20027;-74
2021/12/14 03:25:25;;;;;;;0.20;0.20;;;;;;;-143.85;100.00;70650.75;5094915;28;20038;-75
2021/12/14 03:27:51;;;;;;;0.30;0.30;;;;;;;-143.85;100.00;70650.75;5095045;28;20032;-74
2021/12/14 03:30:42;;;;;;;0.20;0.20;;;;;;;-143.85;100.00;70650.75;5094933;28;20184;-75
2021/12/14 03:33:18;;;;;;;0.20;0.20;;;;;;;-143.85;100.00;70650.75;5080971;28;20036;-76
2021/12/14 03:35:57;;;;;;;0.25;0.25;;;;;;;-143.85;100.00;70650.75;5094780;28;20118;-74
2021/12/14 03:38:25;;;;;;;0.40;0.40;;;;;;;-143.85;100.00;70650.75;5095168;28;20035;-76
2021/12/14 03:41:10;;;;;;;0.20;0.20;;;;;;;-143.85;100.00;70650.75;5112714;28;20410;-75
2021/12/14 03:43:38;;;;;;;0.20;0.20;;;;;;;-143.85;100.00;70650.75;5071636;28;20561;-76
2021/12/14 03:46:06;;;;;;;0.20;0.20;;;;;;;-143.85;100.00;70650.75;5071168;28;20029;-74
2021/12/14 03:48:33;;;;;;;0.20;0.20;;;;;;;-143.85;100.00;70650.75;5071021;28;20032;-75
2021/12/14 03:51:01;;;;;;;0.30;0.30;;;;;;;-143.85;100.00;70650.75;5071084;28;20787;-75
2021/12/14 03:53:27;;;;;;;0.20;0.20;;;;;;;-143.85;100.00;70650.75;5071092;28;20036;-75
2021/12/14 03:55:59;;;;;;;0.20;0.20;;;;;;;-143.85;100.00;70650.75;5070469;28;20483;-75
2021/12/14 03:58:35;;;;;;;0.20;0.20;;;;;;;-143.85;100.00;70650.75;5071023;28;20131;-74
2021/12/14 04:01:23;;;;;;;0.20;0.20;;;;;;;-143.85;100.00;70650.75;5071293;28;20029;-75
2021/12/14 04:03:54;;;;;;;0.30;0.30;;;;;;;-143.85;100.00;70650.75;5069771;28;20393;-75
2021/12/14 04:06:20;;;;;;;0.30;0.30;;;;;;;-143.85;100.00;70650.75;5071297;28;20041;-75
2021/12/14 04:08:46;;;;;;;0.50;0.50;;;;;;;-143.85;100.00;70650.75;5070861;28;20035;-76
2021/12/14 04:11:13;;;;;;;0.30;0.30;;;;;;;-143.85;100.00;70650.75;5071300;28;20028;-75
2021/12/14 04:13:45;;;;;;;0.38;0.38;;;;;;;-143.85;100.00;70650.75;5070773;28;20029;-75
2021/12/14 04:16:15;;;;;;;0.70;0.70;;;;;;;-143.85;100.00;70650.75;5070813;28;20029;-75
2021/12/14 04:18:41;;;;;;;0.30;0.30;;;;;;;-143.85;100.00;70650.75;5071755;28;20028;-75
2021/12/14 04:21:07;;;;;;;0.20;0.20;;;;;;;-143.85;100.00;70650.75;5070945;28;20028;-75
2021/12/14 04:23:38;;;;;;;0.20;0.20;;;;;;;-143.85;100.00;70650.75;5071182;28;20029;-75
2021/12/14 04:26:05;;;;;;;0.50;0.50;;;;;;;-143.85;100.00;70650.75;5070694;28;20040;-75
2021/12/14 04:28:37;;;;;;;0.20;0.20;;;;;;;-143.85;100.00;70650.75;5070732;28;20036;-75
2021/12/14 04:31:03;;;;;;;0.20;0.20;;;;;;;-143.85;100.00;70650.75;5070649;28;20033;-75
2021/12/14 04:33:33;;;;;;;0.20;0.20;;;;;;;-143.85;100.00;70650.75;5070535;28;20078;-75
2021/12/14 04:35:59;;;;;;;0.20;0.20;;;;;;;-143.85;100.00;70650.75;5070839;28;20396;-75
2021/12/14 04:38:29;;;;;;;0.88;0.32;;;;;;;-143.85;100.00;70650.75;5070587;28;20056;-76
2021/12/14 04:52:00;;;;;;;0.35;0.35;;;;;;;-143.85;100.00;70650.75;5112261;28;20121;-76
2021/12/14 04:54:28;;;;;;;0.20;0.20;;;;;;;-143.85;100.00;70650.75;5094010;28;20023;-75
2021/12/14 04:56:55;;;;;;;0.20;0.20;;;;;;;-143.85;100.00;70650.75;5094176;28;20035;-74
2021/12/14 04:59:25;;;;;;;0.20;0.20;;;;;;;-143.85;100.00;70650.75;5094814;28;20407;-76
2021/12/14 05:01:54;;;;;;;0.10;0.10;;;;;;;-143.85;100.00;70650.75;5094028;28;20051;-75
2021/12/14 05:04:23;;;;;;;0.63;0.40;;;;;;;-143.85;100.00;70650.75;5093948;28;20084;-75
2021/12/14 05:06:54;;;;;;;0.20;0.20;;;;;;;-143.85;100.00;70650.75;5094450;28;20026;-75
2021/12/14 05:09:32;;;;;;;0.20;0.20;;;;;;;-143.85;100.00;70650.75;5096172;28;20506;-76
2021/12/14 05:12:07;;;;;;;0.20;0.20;;;;;;;-143.85;100.00;70650.75;5097614;28;20027;-75
2021/12/14 05:14:34;;;;;;;0.20;0.20;;;;;;;-143.85;100.00;70650.75;5097335;28;20031;-75
2021/12/14 05:17:04;;;;;;;0.20;0.20;;;;;;;-143.85;100.00;70650.75;5097536;28;20032;-75
2021/12/14 05:19:35;;;;;;;0.50;0.50;;;;;;;-143.85;100.00;70650.75;5097136;28;20023;-75
2021/12/14 05:22:23;;;;;;;0.30;0.30;;;;;;;-143.85;100.00;70650.75;5097445;28;20023;-74
2021/12/14 05:25:28;;;;;;;0.20;0.20;;;;;;;-143.85;100.00;70650.75;5097786;28;20031;-75
2021/12/14 05:28:00;;;;;;;0.20;0.20;;;;;;;-143.85;100.00;70650.75;5115789;28;20437;-75
2021/12/14 05:30:32;;;;;;;0.82;0.82;;;;;;;-143.85;100.00;70650.75;5097434;28;20023;-74
2021/12/14 05:33:12;;;;;;;0.30;0.30;;;;;;;-143.85;100.00;70650.75;5097348;28;20055;-75
2021/12/14 05:35:40;;;;;;;0.25;0.25;;;;;;;-143.85;100.00;70650.75;5097482;28;20023;-75
2021/12/14 05:38:25;;;;;;;0.20;0.20;;;;;;;-143.85;100.00;70650.75;5115253;28;20085;-74
2021/12/14 05:43:26;;;;;;;0.20;0.20;;;;;;;-143.85;100.00;70650.75;5115002;28;20048;-75
2021/12/14 05:45:55;;;;;;;0.30;0.30;;;;;;;-143.85;100.00;70650.75;5096894;28;20023;-75
2021/12/14 05:48:28;;;;;;;0.40;0.40;;;;;;;-143.85;100.00;70650.75;5096854;28;20084;-75
2021/12/14 05:51:00;;;;;;;0.30;0.30;;;;;;;-143.85;100.00;70650.75;5097526;28;20399;-74
2021/12/14 05:53:29;;;;;;;0.20;0.20;;;;;;;-143.85;100.00;70650.75;5097032;28;20077;-75
2021/12/14 05:55:56;;;;;;;0.40;0.40;;;;;;;-143.85;100.00;70650.75;5096751;28;20027;-76
2021/12/14 05:58:24;;;;;;;0.20;0.20;;;;;;;-143.85;100.00;70650.75;5096612;28;20073;-76
2021/12/14 06:01:11;;;;;;;0.20;0.20;;;;;;;-143.85;100.00;70650.75;5096682;28;20035;-74
2021/12/14 06:03:41;;;;;;;0.20;0.20;;;;;;;-143.85;100.00;70650.75;5096488;28;20042;-75
2021/12/14 06:06:20;;;;;;;0.38;0.38;;;;;;;-143.85;100.00;70650.75;5096639;28;20059;-75
2021/12/14 06:08:45;;;;;;;0.52;0.52;;;;;;;-143.85;100.00;70650.75;5114723;28;20395;-74
2021/12/14 06:11:19;;;;;;;0.63;0.63;;;;;;;-143.85;100.00;70650.75;5096311;28;20115;-76
2021/12/14 06:13:45;;;;;;;0.40;0.40;;;;;;;-143.85;100.00;70650.75;5096809;28;20032;-76
2021/12/14 06:16:31;;;;;;;0.75;0.75;;;;;;;-143.85;100.00;70650.75;5096316;28;20028;-75
2021/12/14 06:19:20;;;;;;;0.20;0.20;;;;;;;-143.85;100.00;70650.75;5096009;28;20479;-79
2021/12/14 06:21:49;;;;;;;0.63;0.63;;;;;;;-143.85;100.00;70650.75;5096035;28;20035;-76
2021/12/14 06:24:15;;;;;;;0.82;0.82;;;;;;;-143.85;100.00;70650.75;5096564;28;20054;-75
2021/12/14 06:26:46;;;;;;;1.88;1.77;;;;;;;-143.85;100.00;70650.75;5095570;28;20563;-76
2021/12/14 06:29:16;;;;;;;0.68;0.68;;;;;;;-143.85;100.00;70650.75;5095965;28;20020;-77
2021/12/14 06:31:42;;;;;;;1.27;1.17;;;;;;;-143.85;100.00;70650.75;5095923;28;20089;-77
2021/12/14 06:34:34;;;;;;;0.20;0.20;;;;;;;-143.85;100.00;70650.75;5095980;28;20023;-78
2021/12/14 06:40:17;;;;;;;0.20;0.20;;;;;;;-143.85;100.00;70650.75;5114230;28;20067;-76
2021/12/14 06:42:46;;;;;;;0.60;0.60;;;;;;;-143.85;100.00;70650.75;5095410;28;20052;-76
2021/12/14 06:45:19;;;;;;;0.20;0.20;;;;;;;-143.85;100.00;70650.75;5095993;28;20469;-77
2021/12/14 06:47:47;;;;;;;0.30;0.30;;;;;;;-143.85;100.00;70650.75;5095198;28;20028;-76
2021/12/14 06:50:16;;;;;;;0.20;0.20;;;;;;;-143.85;100.00;70650.75;5095549;28;20024;-76
2021/12/14 06:52:42;;;;;;;0.73;0.73;;;;;;;-143.85;100.00;70650.75;5095599;28;20472;-77
2021/12/14 06:55:21;;;;;;;0.20;0.20;;;;;;;-143.85;100.00;70650.75;5113482;28;20028;-76
2021/12/14 06:57:46;;;;;;;0.60;0.60;;;;;;;-143.85;100.00;70650.75;5095626;28;20023;-77
2021/12/14 07:00:12;;;;;;;0.20;0.20;;;;;;;-143.85;100.00;70650.75;5094969;28;20077;-77
2021/12/14 07:02:48;;;;;;;0.52;0.52;;;;;;;-143.85;100.00;70650.75;5095039;28;20028;-79
2021/12/14 07:05:22;;;;;;;0.20;0.20;;;;;;;-143.85;100.00;70650.75;5095583;28;20028;-78
2021/12/14 07:07:47;;;;;;;0.30;0.30;;;;;;;-143.85;100.00;70650.75;5095406;28;20034;-78
2021/12/14 07:10:13;;;;;;;0.98;0.98;;;;;;;-143.85;100.00;70650.75;5095262;28;20027;-78
2021/12/14 07:12:40;;;;;;;0.30;0.30;;;;;;;-143.85;100.00;70650.75;5095258;28;20067;-78
2021/12/14 07:15:09;;;;;;;0.20;0.20;;;;;;;-143.85;100.00;70650.75;5095533;28;20027;-78
2021/12/14 07:17:44;;;;;;;0.50;0.50;;;;;;;-143.85;100.00;70650.75;5095505;28;20032;-76
2021/12/14 07:20:34;;;;;;;0.50;0.50;;;;;;;-143.85;100.00;70650.75;5095345;28;20027;-77
2021/12/14 07:23:22;;;;;;;0.30;0.30;;;;;;;-143.85;100.00;70650.75;5095330;28;20541;-76
2021/12/14 07:25:57;;;;;;;0.50;0.50;;;;;;;-143.85;100.00;70650.75;5094605;28;20043;-78
2021/12/14 07:28:23;;;;;;;0.77;0.77;;;;;;;-143.85;100.00;70650.75;5095139;28;20047;-78
2021/12/14 07:30:55;;;;;;;2.63;2.47;;;;;;;-143.85;100.00;70650.75;5094179;28;20471;-79
2021/12/14 07:33:28;;;;;;;0.20;0.20;;;;;;;-143.85;100.00;70650.75;5094886;28;20027;-78
2021/12/14 07:36:12;;;;;;;0.30;0.30;;;;;;;-143.85;100.00;70650.75;5095605;28;20026;-77
2021/12/14 07:38:38;;;;;;;0.30;0.30;;;;;;;-143.85;100.00;70650.75;5094846;28;20027;-77
2021/12/14 07:41:10;;;;;;;0.30;0.30;;;;;;;-143.85;100.00;70650.75;5094659;28;20485;-76
2021/12/14 07:44:05;;;;;;;1.23;1.15;;;;;;;-143.85;100.00;70650.75;5093731;28;20404;-76
2021/12/14 07:46:42;;;;;;;0.85;0.85;;;;;;;-143.85;100.00;70650.75;5072268;28;20449;-79
2021/12/14 07:49:18;;;;;;;0.88;0.88;;;;;;;-143.85;100.00;70650.75;5093964;28;20119;-78
2021/12/14 07:51:45;;;;;;;0.90;0.90;;;;;;;-143.85;100.00;70650.75;5094130;28;20019;-77
2021/12/14 07:54:14;;;;;;;0.30;0.30;;;;;;;-143.85;100.00;70650.75;5094310;28;20066;-76
2021/12/14 07:56:46;;;;;;;0.30;0.30;;;;;;;-143.85;100.00;70650.75;5094564;28;20031;-77
2021/12/14 07:59:28;;;;;;;1.08;1.08;;;;;;;-143.85;100.00;70650.75;5094501;28;20020;-77
2021/12/14 08:02:16;;;;;;;0.38;0.38;;;;;;;-143.85;100.00;70650.75;5094499;28;20024;-77
2021/12/14 08:04:45;;;;;;;0.30;0.30;;;;;;;-143.85;100.00;70650.75;5095186;28;20118;-77
2021/12/14 08:07:32;;;;;;;0.63;0.63;;;;;;;-143.85;100.00;70650.75;5094468;28;20023;-77
2021/12/14 08:10:11;;;;;;;0.68;0.65;;;;;;;-143.85;100.00;70650.75;5094558;28;20110;-77
2021/12/14 08:12:42;;;;;;;3.40;1.55;;;;;;;-143.85;100.00;70650.75;5094461;28;20024;-76
2021/12/14 08:15:10;;;;;;;0.43;0.43;;;;;;;-143.85;100.00;70650.75;5112668;28;20085;-77
2021/12/14 08:17:36;;;;;;;1.08;1.08;;;;;;;-143.85;100.00;70650.75;5094558;28;20080;-76
2021/12/14 08:20:20;;;;;;;1.38;0.40;;;;;;;-143.85;100.00;70650.75;5094473;28;20034;-76
2021/12/14 08:22:46;;;;;;;0.93;0.93;;;;;;;-143.85;100.00;70650.75;5094239;28;20495;-76
2021/12/14 08:25:15;;;;;;;2.05;1.92;;;;;;;-143.85;100.00;70650.75;5094236;28;20024;-77
2021/12/14 08:27:41;;;;;;;0.40;0.40;;;;;;;-143.85;100.00;70650.75;5094394;28;20020;-76
2021/12/14 08:30:12;;;;;;;0.20;0.20;;;;;;;-143.85;100.00;70650.75;5094220;28;20035;-77
2021/12/14 08:32:40;;;;;;;0.38;0.38;;;;;;;-143.85;100.00;70650.75;5094447;28;20016;-76
2021/12/14 08:35:10;;;;;;;0.50;0.50;;;;;;;-143.85;100.00;70650.75;5094029;28;20032;-77
2021/12/14 08:37:53;;;;;;;0.28;0.28;;;;;;;-143.85;100.00;70650.75;5094278;28;20034;-76
2021/12/14 08:40:24;;;;;;;0.30;0.30;;;;;;;-143.85;100.00;70650.75;5094274;28;20112;-76
2021/12/14 08:43:21;;;;;;;0.60;0.60;;;;;;;-143.85;100.00;70650.75;5095083;28;20454;-77
2021/12/14 08:45:58;;;;;;;1.63;1.40;;;;;;;-143.85;100.00;70650.75;5097952;28;20103;-76
2021/12/14 08:48:30;;;;;;;0.20;0.20;;;;;;;-143.85;100.00;70650.75;5097714;28;20099;-76
2021/12/14 08:51:04;;;;;;;0.30;0.30;;;;;;;-143.85;100.00;70650.75;5097942;28;20035;-76
2021/12/14 08:53:35;;;;;;;0.20;0.20;;;;;;;-143.85;100.00;70650.75;5097781;28;20028;-76
2021/12/14 08:56:05;;;;;;;0.50;0.50;;;;;;;-143.85;100.00;70650.75;5098317;28;20096;-77
2021/12/14 08:58:31;;;;;;;0.68;0.68;;;;;;;-143.85;100.00;70650.75;5098266;28;20034;-76
2021/12/14 09:01:02;;;;;;;0.45;0.45;;;;;;;-143.85;100.00;70650.75;5116114;28;20024;-76
2021/12/14 09:03:35;;;;;;;0.20;0.20;;;;;;;-143.85;100.00;70650.75;5097702;28;20032;-75
2021/12/14 09:06:10;;;;;;;0.32;0.32;;;;;;;-143.85;100.00;70650.75;5097793;28;20038;-76
2021/12/14 09:08:38;;;;;;;9.07;0.77;;;;;;;-143.85;100.00;70650.75;5097573;28;20105;-76
2021/12/14 09:11:04;;;;;;;;;;;;;;;-143.85;100.00;70650.75;5116393;28;20089;-77
2021/12/14 09:13:30;;;;;;;0.75;0.75;;;;;;;-143.85;100.00;70650.75;5097587;28;19916;-76
2021/12/14 09:16:18;;;;;;;1.40;1.30;;;;;;;-143.85;100.00;70650.75;5097362;28;20030;-77
2021/12/14 09:18:48;;;;;;;2.28;2.10;;;;;;;-143.85;100.00;70650.75;5097448;28;20020;-76
2021/12/14 09:21:22;;;;;;;2.35;2.15;;;;;;;-143.85;100.00;70650.75;5097247;28;20130;-77
2021/12/14 09:23:52;;;;;;;3.97;2.55;;;;;;;-143.85;100.00;70650.75;5097412;28;20031;-77
2021/12/14 09:26:21;;;;;;;1.27;1.27;;;;;;;-143.85;100.00;70650.75;5115361;28;20419;-77
2021/12/14 09:28:48;;;;;;;2.20;2.00;;;;;;;-143.85;100.00;70650.75;5097215;28;20479;-76
2021/12/14 09:31:18;;;;;;;3.53;2.95;;;;;;;-143.85;100.00;70650.75;5115390;28;20034;-77
2021/12/14 09:33:44;;;;;;;3.20;2.92;;;;;;;-143.85;100.00;70650.75;5115695;28;20024;-77
2021/12/14 09:36:13;;;;;;;1.67;1.55;;;;;;;-143.85;100.00;70650.75;5097430;28;20052;-76
2021/12/14 09:38:47;;;;;;;0.22;0.22;;;;;;;-143.85;100.00;70650.75;5097072;28;20020;-76
2021/12/14 09:41:18;;;;;;;0.88;0.55;;;;;;;-143.85;100.00;70650.75;5097008;28;20088;-76
2021/12/14 09:43:46;;;;;;;0.93;0.93;;;;;;;-143.85;100.00;70650.75;5096776;28;20078;-76
2021/12/14 09:46:13;;;;;;;0.45;0.43;;;;;;;-143.85;100.00;70650.75;5096954;28;20185;-77
2021/12/14 09:48:42;;;;;;;0.22;0.22;;;;;;;-143.85;100.00;70650.75;5096813;28;20031;-77
2021/12/14 09:51:16;;;;;;;0.75;0.75;;;;;;;-143.85;100.00;70650.75;5097017;28;20543;-76
2021/12/14 09:53:47;;;;;;;0.43;0.43;;;;;;;-143.85;100.00;70650.75;5096593;28;20028;-77
2021/12/14 09:56:15;;;;;;;1.17;1.17;;;;;;;-143.85;100.00;70650.75;5096220;28;20403;-76
2021/12/14 09:58:43;;;;;;;;;;;;;;;-143.85;100.00;70650.75;5097004;28;20039;-76
2021/12/14 10:01:24;;;;;;;1.75;1.65;;;;;;;-143.85;100.00;70650.75;5096571;28;19908;-76
2021/12/14 10:03:53;;;;;;;1.05;1.05;;;;;;;-143.85;100.00;70650.75;5096717;28;20060;-76
2021/12/14 10:06:26;;;;;;;0.43;0.43;;;;;;;-143.85;100.00;70650.75;5096622;28;20116;-76
2021/12/14 10:09:00;;;;;;;1.48;1.33;;;;;;;-143.85;100.00;70650.75;5096476;28;20117;-77
2021/12/14 10:11:42;;;;;;;0.65;0.65;;;;;;;-143.85;100.00;70650.75;5114680;28;20419;-77
2021/12/14 10:14:09;;;;;;;2.30;1.60;;;;;;;-143.85;100.00;70650.75;5096548;28;20472;-76
2021/12/14 10:16:36;;;;;;;0.83;0.83;;;;;;;-143.85;100.00;70650.75;5096262;28;20024;-76
2021/12/14 10:19:08;;;;;;;0.95;0.68;;;;;;;-143.85;100.00;70650.75;5114502;28;20261;-76
2021/12/14 10:21:38;;;;;;;1.02;1.02;;;;;;;-143.85;100.00;70650.75;5096179;28;20032;-77
2021/12/14 10:24:06;;;;;;;0.73;0.73;;;;;;;-143.85;100.00;70650.75;5096139;28;20103;-77
2021/12/14 10:26:33;;;;;;;;;;;;;;;-143.85;100.00;70650.75;5114744;28;20032;-77
2021/12/14 10:29:01;;;;;;;0.30;0.30;;;;;;;-143.85;100.00;70650.75;5096110;28;19947;-77
2021/12/14 10:31:44;;;;;;;0.60;0.60;;;;;;;-143.85;100.00;70650.75;5114167;28;20020;-76
2021/12/14 10:34:17;;;;;;;0.95;0.95;;;;;;;-143.85;100.00;70650.75;5096349;28;20062;-76
2021/12/14 10:36:47;;;;;;;1.40;1.08;;;;;;;-143.85;100.00;70650.75;5096081;28;20020;-78
2021/12/14 10:39:25;;;;;;;4.93;2.78;;;;;;;-143.85;100.00;70650.75;5114208;28;20020;-77
2021/12/14 10:44:43;;;;;;;0.40;0.40;;;;;;;-143.85;100.00;70650.75;5073979;28;20150;-77
2021/12/14 10:47:12;;;;;;;0.35;0.35;;;;;;;-143.85;100.00;70650.75;5073268;28;20036;-77
2021/12/14 10:49:38;;;;;;;3.00;2.10;;;;;;;-143.85;100.00;70650.75;5072065;28;20039;-77
2021/12/14 10:52:10;;;;;;;1.75;1.65;;;;;;;-143.85;100.00;70650.75;5071974;28;20046;-77
2021/12/14 10:54:36;;;;;;;0.50;0.50;;;;;;;-143.85;100.00;70650.75;5071899;28;20025;-77
2021/12/14 10:57:09;;;;;;;0.52;0.52;;;;;;;-143.85;100.00;70650.75;5072357;28;20028;-78
2021/12/14 10:59:39;;;;;;;0.40;0.40;;;;;;;-143.85;100.00;70650.75;5071798;28;20028;-78
2021/12/14 11:02:06;;;;;;;0.25;0.25;;;;;;;-143.85;100.00;70650.75;5071913;28;20036;-78
2021/12/14 11:04:51;;;;;;;0.32;0.32;;;;;;;-143.85;100.00;70650.75;5071991;28;20488;-78
2021/12/14 11:07:22;;;;;;;1.67;1.58;;;;;;;-143.85;100.00;70650.75;5072240;28;20036;-78
2021/12/14 11:09:53;;;;;;;0.52;0.52;;;;;;;-143.85;100.00;70650.75;5071834;28;20464;-77
2021/12/14 11:12:33;;;;;;;0.93;0.93;;;;;;;-143.85;100.00;70650.75;5071797;28;20037;-79
2021/12/14 11:15:08;;;;;;;1.60;1.50;;;;;;;-143.85;100.00;70650.75;5071530;28;20054;-77
2021/12/14 11:20:24;;;;;;;0.52;0.52;;;;;;;-143.85;100.00;70650.75;5073088;28;20062;-78
2021/12/14 11:23:00;;;;;;;2.03;0.73;;;;;;;-143.85;100.00;70650.75;5071596;28;20070;-77
2021/12/14 11:25:29;;;;;;;0.43;0.43;;;;;;;-143.85;100.00;70650.75;5072700;28;20086;-77
2021/12/14 11:28:04;;;;;;;0.95;0.95;;;;;;;-143.85;100.00;70650.75;5072916;28;20107;-77
2021/12/14 11:30:38;;;;;;;0.65;0.40;;;;;;;-143.85;100.00;70650.75;5071330;28;20035;-77
2021/12/14 11:33:10;;;;;;;0.45;0.45;;;;;;;-143.85;100.00;70650.75;5071328;28;20035;-78
2021/12/14 11:35:50;;;;;;;0.40;0.40;;;;;;;-143.85;100.00;70650.75;5071040;28;20024;-78
2021/12/14 11:38:31;;;;;;;0.77;0.77;;;;;;;-143.85;100.00;70650.75;5072898;28;20071;-78
2021/12/14 11:41:00;;;;;;;2.67;2.50;;;;;;;-143.85;100.00;70650.75;5072995;28;20040;-76
2021/12/14 11:43:29;;;;;;;3.63;3.33;;;;;;;-143.85;100.00;70650.75;5071094;28;20094;-79
2021/12/14 11:46:04;;;;;;;2.05;1.33;;;;;;;-143.85;100.00;70650.75;5072217;28;20409;-78
2021/12/14 11:48:37;;;;;;;0.80;0.80;;;;;;;-143.85;100.00;70650.75;5071408;28;20083;-78
2021/12/14 11:51:06;;;;;;;0.30;0.30;;;;;;;-143.85;100.00;70650.75;5071710;28;20111;-78
2021/12/14 11:53:33;;;;;;;2.83;2.42;;;;;;;-143.85;100.00;70650.75;5071436;28;20024;-78
2021/12/14 11:56:04;;;;;;;1.13;1.05;;;;;;;-143.85;100.00;70650.75;5071255;28;20153;-78
2021/12/14 11:58:54;;;;;;;1.58;1.48;;;;;;;-143.85;100.00;70650.75;5070959;28;20058;-79
2021/12/14 12:01:46;;;;;;;0.50;0.50;;;;;;;-143.85;100.00;70650.75;5071261;28;20032;-77
2021/12/14 12:04:33;;;;;;;0.88;0.88;;;;;;;-143.85;100.00;70650.75;5072865;28;20030;-78